createdAt,value
2022-08-14T00:04:45.061Z,24.50
2022-08-14T00:07:19.132Z,22.00
2022-08-14T00:10:01.856Z,21.50
2022-08-14T00:12:59.447Z,21.50
2022-08-14T00:15:43.722Z,21.70
2022-08-14T00:18:30.837Z,22.60
2022-08-14T00:21:28.210Z,21.30
2022-08-14T00:24:04.903Z,22.50
2022-08-14T00:26:41.372Z,23.30
2022-08-14T00:29:40.327Z,24.00
2022-08-14T00:32:55.993Z,23.50
2022-08-14T00:35:20.261Z,23.30
2022-08-14T00:37:54.403Z,23.50
2022-08-14T00:40:35.618Z,23.20
2022-08-14T00:43:10.089Z,23.50
2022-08-14T00:45:43.338Z,24.20
2022-08-14T00:48:34.761Z,23.10
2022-08-14T00:51:11.280Z,23.20
2022-08-14T00:53:53.643Z,24.20
2022-08-14T00:56:31.947Z,25.10
2022-08-14T00:59:09.364Z,23.60
2022-08-14T01:01:45.221Z,21.90
2022-08-14T01:04:50.891Z,22.70
2022-08-14T01:07:22.386Z,23.90
2022-08-14T01:09:56.456Z,24.30
2022-08-14T01:12:40.522Z,23.10
2022-08-14T01:15:57.594Z,24.50
2022-08-14T01:19:01.449Z,28.50
2022-08-14T01:21:47.199Z,25.30
2022-08-14T01:24:34.535Z,26.80
2022-08-14T01:27:22.233Z,22.30
2022-08-14T01:30:04.919Z,22.70
2022-08-14T01:32:52.398Z,23.00
2022-08-14T01:36:04.029Z,23.50
2022-08-14T01:38:37.284Z,25.20
2022-08-14T01:41:23.029Z,25.70
2022-08-14T01:44:31.371Z,27.20
2022-08-14T01:47:21.636Z,27.20
2022-08-14T01:52:58.742Z,27.50
2022-08-14T01:55:43.441Z,30.00
2022-08-14T01:58:29.863Z,27.40
2022-08-14T02:01:10.002Z,26.50
2022-08-14T02:03:44.102Z,25.80
2022-08-14T02:07:15.609Z,28.70
2022-08-14T02:10:12.937Z,27.60
2022-08-14T02:13:13.340Z,26.80
2022-08-14T02:15:50.321Z,26.10
2022-08-14T02:18:26.519Z,28.60
2022-08-14T02:21:10.350Z,30.50
2022-08-14T02:23:47.184Z,29.60
2022-08-14T02:26:34.746Z,26.40
2022-08-14T02:29:56.489Z,26.30
2022-08-14T02:32:36.556Z,25.90
2022-08-14T02:35:26.561Z,22.40
2022-08-14T02:38:04.204Z,25.30
2022-08-14T02:40:52.394Z,28.80
2022-08-14T02:43:24.178Z,26.90
2022-08-14T02:46:14.098Z,24.30
2022-08-14T02:49:06.227Z,25.50
2022-08-14T02:51:46.789Z,25.10
2022-08-14T02:54:40.028Z,26.90
2022-08-14T02:57:39.154Z,27.10
2022-08-14T03:00:31.732Z,26.80
2022-08-14T03:03:08.004Z,27.30
2022-08-14T03:05:51.845Z,28.60
2022-08-14T03:08:32.199Z,28.30
2022-08-14T03:11:35.081Z,28.70
2022-08-14T03:14:39.148Z,29.40
2022-08-14T03:17:31.617Z,35.00
2022-08-14T03:20:36.370Z,29.00
2022-08-14T03:26:40.045Z,27.30
2022-08-14T03:29:24.624Z,27.90
2022-08-14T03:32:03.612Z,29.10
2022-08-14T03:34:52.575Z,30.10
2022-08-14T03:39:16.158Z,33.70
2022-08-14T03:40:50.819Z,30.10
2022-08-14T03:43:34.677Z,30.10
2022-08-14T03:46:52.358Z,30.00
2022-08-14T03:49:35.414Z,34.70
2022-08-14T03:52:40.524Z,32.50
2022-08-14T03:55:27.454Z,34.40
2022-08-14T03:59:18.004Z,35.10
2022-08-14T04:02:02.162Z,32.20
2022-08-14T04:04:45.239Z,30.50
2022-08-14T04:07:22.746Z,29.00
2022-08-14T04:10:31.688Z,27.10
2022-08-14T04:13:15.626Z,29.30
2022-08-14T04:16:02.426Z,28.00
2022-08-14T04:18:54.584Z,28.20
2022-08-14T04:22:01.724Z,28.30
2022-08-14T04:24:49.621Z,27.40
2022-08-14T04:27:20.584Z,26.60
2022-08-14T04:29:56.350Z,27.10
2022-08-14T04:32:58.019Z,27.90
2022-08-14T04:35:55.298Z,28.70
2022-08-14T04:39:02.343Z,27.20
2022-08-14T04:42:12.228Z,24.80
2022-08-14T04:45:02.770Z,27.00
2022-08-14T04:48:00.172Z,27.00
2022-08-14T04:50:37.919Z,26.90
2022-08-14T04:53:34.790Z,25.60
2022-08-14T04:56:31.444Z,26.00
2022-08-14T04:59:29.319Z,23.90
2022-08-14T05:02:08.618Z,28.70
2022-08-14T05:05:02.917Z,23.20
2022-08-14T05:08:50.377Z,24.00
2022-08-14T05:11:44.222Z,21.10
2022-08-14T05:14:53.715Z,24.90
2022-08-14T05:17:43.365Z,22.90
2022-08-14T05:21:54.826Z,22.30
2022-08-14T05:23:49.812Z,23.80
2022-08-14T05:26:33.286Z,24.20
2022-08-14T05:29:35.906Z,21.70
2022-08-14T05:32:40.913Z,23.20
2022-08-14T05:44:59.127Z,19.80
2022-08-14T05:47:41.942Z,18.80
2022-08-14T05:50:18.850Z,19.50
2022-08-14T05:53:03.570Z,18.80
2022-08-14T06:08:48.972Z,19.10
2022-08-14T06:11:31.008Z,17.60
2022-08-14T06:14:20.671Z,18.30
2022-08-14T06:19:40.962Z,18.60
2022-08-14T06:22:32.483Z,18.20
2022-08-14T06:25:19.616Z,16.40
2022-08-14T06:28:04.486Z,16.30
2022-08-14T06:30:46.552Z,14.70
2022-08-14T06:35:01.135Z,14.30
2022-08-14T06:36:44.776Z,13.60
2022-08-14T06:43:38.893Z,11.40
2022-08-14T06:46:34.052Z,12.60
2022-08-14T06:49:57.835Z,11.20
2022-08-14T06:52:50.036Z,10.50
2022-08-14T06:55:40.767Z,11.40
2022-08-14T06:58:34.716Z,12.60
2022-08-14T07:01:35.712Z,10.10
2022-08-14T07:04:26.313Z,10.20
2022-08-14T07:07:02.806Z,12.00
2022-08-14T07:09:43.501Z,11.50
2022-08-14T07:12:56.171Z,11.50
2022-08-14T07:15:21.155Z,10.10
2022-08-14T07:17:52.427Z,9.30
2022-08-14T07:20:33.920Z,9.30
2022-08-14T07:23:09.393Z,9.50
2022-08-14T07:25:55.850Z,13.00
2022-08-14T07:28:36.055Z,9.60
2022-08-14T07:31:18.550Z,8.70
2022-08-14T07:33:57.916Z,9.00
2022-08-14T07:36:39.426Z,8.60
2022-08-14T07:39:36.707Z,8.40
2022-08-14T07:42:14.672Z,14.40
2022-08-14T07:45:01.213Z,6.70
2022-08-14T07:47:53.879Z,8.80
2022-08-14T07:50:25.940Z,7.20
2022-08-14T07:53:17.316Z,7.50
2022-08-14T07:56:09.027Z,10.60
2022-08-14T07:58:54.616Z,9.20
2022-08-14T08:01:48.333Z,8.40
2022-08-14T08:04:37.505Z,6.90
2022-08-14T08:07:17.262Z,9.90
2022-08-14T08:10:01.094Z,8.00
2022-08-14T08:13:24.301Z,8.60
2022-08-14T08:16:00.615Z,6.20
2022-08-14T08:18:34.282Z,8.00
2022-08-14T08:21:14.343Z,6.10
2022-08-14T08:23:51.261Z,9.10
2022-08-14T08:26:31.294Z,6.60
2022-08-14T08:29:09.848Z,11.60
2022-08-14T08:31:55.620Z,7.40
2022-08-14T08:34:30.849Z,6.20
2022-08-14T08:37:07.112Z,7.30
2022-08-14T08:40:03.266Z,9.80
2022-08-14T08:43:35.770Z,9.90
2022-08-14T08:46:33.268Z,5.90
2022-08-14T08:49:10.023Z,10.80
2022-08-14T08:51:49.113Z,7.40
2022-08-14T08:54:31.109Z,10.50
2022-08-14T08:57:36.952Z,7.00
2022-08-14T09:00:25.322Z,7.90
2022-08-14T09:07:01.233Z,7.10
2022-08-14T09:09:26.283Z,7.50
2022-08-14T09:12:03.426Z,9.60
2022-08-14T09:14:37.179Z,10.10
2022-08-14T09:17:09.655Z,10.00
2022-08-14T09:19:43.233Z,10.80
2022-08-14T09:22:34.906Z,11.10
2022-08-14T09:25:08.871Z,6.70
2022-08-14T09:27:39.684Z,8.00
2022-08-14T09:30:30.761Z,9.30
2022-08-14T09:33:10.974Z,9.30
2022-08-14T09:36:08.409Z,10.40
2022-08-14T09:39:36.866Z,9.40
2022-08-14T09:42:45.151Z,7.60
2022-08-14T09:48:34.174Z,8.00
2022-08-14T09:54:19.206Z,8.70
2022-08-14T09:56:56.665Z,7.70
2022-08-14T09:59:33.528Z,7.50
2022-08-14T10:02:22.229Z,7.40
2022-08-14T10:05:10.249Z,10.80
2022-08-14T10:07:53.860Z,8.70
2022-08-14T10:10:41.784Z,8.00
2022-08-14T10:13:27.356Z,7.70
2022-08-14T10:19:30.623Z,9.80
2022-08-14T10:23:13.006Z,11.40
2022-08-14T10:25:18.249Z,10.30
2022-08-14T10:27:59.672Z,11.80
2022-08-14T10:30:36.916Z,10.20
2022-08-14T10:33:11.529Z,11.90
2022-08-14T10:38:50.490Z,10.60
2022-08-14T10:41:21.444Z,9.30
2022-08-14T10:45:02.274Z,10.10
2022-08-14T10:47:39.554Z,9.10
2022-08-14T10:50:14.884Z,8.10
2022-08-14T10:53:02.335Z,9.60
2022-08-14T10:55:46.618Z,12.10
2022-08-14T10:58:34.131Z,9.60
2022-08-14T11:01:08.120Z,10.80
2022-08-14T11:03:56.043Z,10.50
2022-08-14T11:06:38.805Z,8.30
2022-08-14T11:09:42.025Z,8.80
2022-08-14T11:12:40.316Z,12.70
2022-08-14T11:15:29.379Z,9.40
2022-08-14T11:18:20.462Z,10.50
2022-08-14T11:21:23.344Z,10.90
2022-08-14T11:24:50.872Z,10.00
2022-08-14T11:27:11.855Z,9.70
2022-08-14T11:30:00.754Z,9.70
2022-08-14T11:32:53.340Z,10.60
2022-08-14T11:35:47.247Z,9.20
2022-08-14T11:38:22.476Z,9.70
2022-08-14T11:40:52.902Z,10.40
2022-08-14T11:44:45.978Z,10.90
2022-08-14T11:47:35.478Z,11.20
2022-08-14T11:50:37.660Z,9.50
2022-08-14T11:53:52.091Z,10.00
2022-08-14T11:56:29.608Z,9.40
2022-08-14T11:59:11.550Z,11.10
2022-08-14T12:01:45.934Z,11.40
2022-08-14T12:04:34.011Z,10.10
2022-08-14T12:07:12.485Z,10.00
2022-08-14T12:13:29.630Z,10.40
2022-08-14T12:16:47.205Z,9.90
2022-08-14T12:19:18.634Z,10.30
2022-08-14T12:21:51.910Z,10.30
2022-08-14T12:24:39.965Z,10.40
2022-08-14T12:27:12.374Z,9.00
2022-08-14T12:29:55.734Z,11.10
2022-08-14T12:32:50.878Z,17.00
2022-08-14T12:39:07.515Z,10.50
2022-08-14T12:42:04.242Z,12.70
2022-08-14T12:44:44.124Z,10.30
2022-08-14T12:47:21.453Z,10.60
2022-08-14T12:50:01.614Z,10.80
2022-08-14T12:52:54.050Z,12.60
2022-08-14T12:56:17.947Z,11.30
2022-08-14T12:59:00.166Z,11.40
2022-08-14T13:01:59.412Z,10.90
2022-08-14T13:05:02.563Z,11.50
2022-08-14T13:07:38.076Z,11.90
2022-08-14T13:10:51.339Z,10.60
2022-08-14T13:13:15.572Z,12.50
2022-08-14T13:15:57.629Z,11.10
2022-08-14T13:18:46.572Z,11.60
2022-08-14T13:21:58.942Z,12.40
2022-08-14T13:27:54.593Z,10.80
2022-08-14T13:30:55.405Z,11.70
2022-08-14T13:33:40.719Z,10.80
2022-08-14T13:36:59.261Z,10.90
2022-08-14T13:40:16.574Z,10.20
2022-08-14T13:43:04.378Z,11.10
2022-08-14T13:46:17.215Z,13.00
2022-08-14T13:48:52.199Z,12.60
2022-08-14T13:51:34.571Z,11.10
2022-08-14T13:54:12.770Z,11.50
2022-08-14T13:57:04.781Z,11.20
2022-08-14T13:59:49.474Z,10.50
2022-08-14T14:02:45.798Z,11.00
2022-08-14T14:07:12.639Z,11.40
2022-08-14T14:08:53.519Z,10.30
2022-08-14T14:11:30.021Z,11.10
2022-08-14T14:14:05.924Z,10.60
2022-08-14T14:16:56.260Z,12.30
2022-08-14T14:19:39.271Z,10.10
2022-08-14T14:22:35.743Z,10.90
2022-08-14T14:25:22.472Z,11.20
2022-08-14T14:28:07.194Z,11.70
2022-08-14T14:30:54.173Z,10.60
2022-08-14T14:34:29.631Z,12.20
2022-08-14T14:37:19.444Z,14.30
2022-08-14T14:40:52.183Z,12.50
2022-08-14T14:42:53.453Z,11.40
2022-08-14T14:45:41.210Z,11.30
2022-08-14T14:48:19.516Z,12.00
2022-08-14T14:51:02.819Z,11.60
2022-08-14T14:53:39.516Z,11.60
2022-08-14T14:56:50.075Z,11.80
2022-08-14T14:59:28.285Z,10.60
2022-08-14T15:02:11.612Z,12.70
2022-08-14T15:04:50.450Z,14.60
2022-08-14T15:07:45.197Z,11.60
2022-08-14T15:10:37.854Z,12.10
2022-08-14T15:13:43.068Z,11.50
2022-08-14T15:16:54.301Z,11.70
2022-08-14T15:19:56.837Z,12.50
2022-08-14T15:22:43.603Z,12.50
2022-08-14T15:25:38.272Z,12.90
2022-08-14T15:28:24.521Z,11.30
2022-08-14T15:31:09.428Z,13.10
2022-08-14T15:34:44.603Z,11.10
2022-08-14T15:36:57.903Z,12.50
2022-08-14T15:39:35.909Z,12.20
2022-08-14T15:42:20.419Z,12.40
2022-08-14T15:44:58.016Z,12.60
2022-08-14T15:47:41.507Z,13.00
2022-08-14T15:50:16.063Z,13.20
2022-08-14T15:52:49.132Z,13.10
2022-08-14T15:55:23.318Z,12.20
2022-08-14T15:58:03.300Z,12.70
2022-08-14T16:00:58.294Z,13.40
2022-08-14T16:03:36.512Z,13.80
2022-08-14T16:06:22.287Z,13.50
2022-08-14T16:09:13.259Z,13.00
2022-08-14T16:14:45.348Z,12.20
2022-08-14T16:17:49.576Z,13.90
2022-08-14T16:20:41.596Z,13.80
2022-08-14T16:23:47.404Z,13.30
2022-08-14T16:27:01.459Z,13.30
2022-08-14T16:29:54.310Z,14.00
2022-08-14T16:32:55.948Z,13.10
2022-08-14T16:35:59.393Z,12.90
2022-08-14T16:38:57.422Z,13.80
2022-08-14T16:50:40.650Z,14.10
2022-08-14T16:53:37.092Z,14.30
2022-08-14T16:56:48.104Z,13.90
2022-08-14T17:01:16.374Z,15.80
2022-08-14T17:02:56.822Z,15.20
2022-08-14T17:06:02.055Z,14.20
2022-08-14T17:08:56.927Z,15.20
2022-08-14T17:11:27.971Z,14.70
2022-08-14T17:14:11.175Z,15.00
2022-08-14T17:17:58.335Z,16.70
2022-08-14T17:21:01.987Z,14.70
2022-08-14T17:23:52.123Z,15.60
2022-08-14T17:26:49.722Z,14.50
2022-08-14T17:29:57.753Z,14.80
2022-08-14T17:32:55.935Z,16.60
2022-08-14T17:35:57.947Z,22.50
2022-08-14T17:39:19.344Z,16.00
2022-08-14T17:42:03.077Z,17.60
2022-08-14T17:45:03.058Z,16.70
2022-08-14T17:51:00.095Z,16.50
2022-08-14T17:54:01.256Z,16.50
2022-08-14T17:56:54.480Z,16.40
2022-08-14T17:59:38.532Z,17.40
2022-08-14T18:06:07.447Z,16.60
2022-08-14T18:09:01.071Z,16.90
2022-08-14T18:11:45.620Z,18.30
2022-08-14T18:15:14.112Z,20.60
2022-08-14T18:22:44.658Z,17.20
2022-08-14T18:26:46.888Z,17.10
2022-08-14T18:48:06.313Z,18.40
2022-08-14T18:54:59.901Z,21.20
2022-08-14T19:02:34.990Z,20.80
2022-08-14T19:08:58.779Z,20.90
2022-08-14T19:11:59.962Z,21.40
2022-08-14T19:15:40.819Z,21.50
2022-08-14T19:18:28.881Z,21.40
2022-08-14T19:21:13.465Z,23.00
2022-08-14T19:24:44.253Z,20.90
2022-08-14T19:27:26.205Z,23.50
2022-08-14T19:30:32.819Z,22.70
2022-08-14T19:33:52.959Z,22.90
2022-08-14T19:37:05.035Z,22.70
2022-08-14T19:40:15.250Z,23.30
2022-08-14T19:43:09.781Z,22.20
2022-08-14T19:47:27.052Z,23.90
2022-08-14T19:54:37.203Z,25.60
2022-08-14T19:57:34.185Z,24.90
2022-08-14T20:00:28.255Z,28.00
2022-08-14T20:03:59.936Z,26.20
2022-08-14T20:07:08.796Z,26.30
2022-08-14T20:11:07.361Z,27.20
2022-08-14T20:12:57.600Z,26.90
2022-08-14T20:15:47.076Z,25.40
2022-08-14T20:21:34.138Z,26.90
2022-08-14T20:24:31.208Z,27.40
2022-08-14T20:27:35.020Z,26.40
2022-08-14T20:30:33.966Z,26.70
2022-08-14T20:33:13.947Z,27.00
2022-08-14T20:35:51.234Z,27.20
2022-08-14T20:38:35.413Z,28.10
2022-08-14T20:41:12.459Z,27.60
2022-08-14T20:44:02.715Z,28.30
2022-08-14T20:46:44.336Z,26.70
2022-08-14T20:49:21.807Z,26.80
2022-08-14T20:52:19.018Z,27.90
2022-08-14T20:54:51.764Z,27.40
2022-08-14T20:57:54.938Z,28.90
2022-08-14T21:00:52.468Z,30.10
2022-08-14T21:04:47.263Z,30.00
2022-08-14T21:07:36.446Z,29.80
2022-08-14T21:10:44.596Z,29.80
2022-08-14T21:14:09.180Z,28.00
2022-08-14T21:16:25.763Z,31.00
2022-08-14T21:19:02.263Z,32.80
2022-08-14T21:21:41.594Z,31.90
2022-08-14T21:24:38.502Z,30.90
2022-08-14T21:27:22.624Z,30.40
2022-08-14T21:29:54.975Z,32.50
2022-08-14T21:32:35.296Z,33.10
2022-08-14T21:35:09.044Z,32.60
2022-08-14T21:37:47.891Z,32.90
2022-08-14T21:40:40.268Z,31.40
2022-08-14T21:43:32.141Z,33.40
2022-08-14T21:46:03.834Z,32.00
2022-08-14T21:48:34.031Z,33.20
2022-08-14T21:51:54.719Z,31.90
2022-08-14T21:54:00.493Z,33.00
2022-08-14T21:56:38.703Z,31.10
2022-08-14T21:59:18.782Z,33.10
2022-08-14T22:02:01.508Z,34.80
2022-08-14T22:04:41.638Z,34.90
2022-08-14T22:07:16.864Z,36.20
2022-08-14T22:09:55.328Z,34.50
2022-08-14T22:12:57.201Z,32.90
2022-08-14T22:15:19.193Z,36.00
2022-08-14T22:17:54.624Z,34.50
2022-08-14T22:20:28.672Z,33.10
2022-08-14T22:23:03.110Z,33.10
2022-08-14T22:25:41.386Z,32.50
2022-08-14T22:28:19.537Z,33.00
2022-08-14T22:30:55.396Z,32.00
2022-08-14T22:33:44.383Z,33.30
2022-08-14T22:36:51.057Z,31.80
2022-08-14T22:40:17.678Z,32.00
2022-08-14T22:42:39.029Z,32.00
2022-08-14T22:45:36.616Z,33.80
2022-08-14T22:48:13.020Z,33.90
2022-08-14T22:50:56.357Z,32.40
2022-08-14T22:53:33.691Z,32.80
2022-08-14T22:56:05.413Z,34.60
2022-08-14T22:58:57.170Z,32.50
2022-08-14T23:01:56.934Z,33.40
2022-08-14T23:04:54.409Z,33.20
2022-08-14T23:08:56.967Z,33.20
2022-08-14T23:10:32.999Z,33.40
2022-08-14T23:13:07.704Z,32.00
2022-08-14T23:15:37.564Z,33.60
2022-08-14T23:20:44.373Z,33.30
2022-08-14T23:23:22.840Z,36.00
2022-08-14T23:26:46.874Z,36.30
2022-08-14T23:28:56.635Z,38.30
2022-08-14T23:31:35.745Z,37.70
2022-08-14T23:34:29.551Z,37.60
2022-08-14T23:36:59.151Z,38.20
2022-08-14T23:39:37.663Z,38.50
2022-08-14T23:42:18.044Z,38.70
2022-08-14T23:44:53.705Z,40.80
2022-08-14T23:47:51.628Z,36.20
2022-08-14T23:50:34.234Z,36.90
2022-08-14T23:53:48.465Z,34.40
2022-08-14T23:56:31.709Z,35.90
2022-08-14T23:59:10.758Z,37.80
